createdAt,value
2023-05-25T00:01:02.059Z,853.33
2023-05-25T00:01:52.995Z,853.31
2023-05-25T00:02:52.181Z,853.28
2023-05-25T00:03:51.998Z,853.33
2023-05-25T00:04:51.981Z,853.31
2023-05-25T00:05:51.930Z,853.29
2023-05-25T00:06:51.923Z,853.30
2023-05-25T00:07:51.905Z,853.35
2023-05-25T00:08:51.902Z,853.35
2023-05-25T00:09:51.889Z,853.32
2023-05-25T00:10:51.891Z,853.34
2023-05-25T00:11:51.859Z,853.30
2023-05-25T00:12:51.877Z,853.35
2023-05-25T00:13:51.839Z,853.37
2023-05-25T00:14:51.826Z,853.37
2023-05-25T00:15:51.888Z,853.35
2023-05-25T00:16:51.925Z,853.33
2023-05-25T00:17:51.853Z,853.36
2023-05-25T00:18:51.787Z,853.39
2023-05-25T00:19:51.768Z,853.38
2023-05-25T00:20:51.770Z,853.37
2023-05-25T00:21:51.759Z,853.32
2023-05-25T00:22:51.773Z,853.35
2023-05-25T00:23:51.738Z,853.35
2023-05-25T00:24:51.737Z,853.30
2023-05-25T00:25:51.712Z,853.34
2023-05-25T00:26:51.696Z,853.31
2023-05-25T00:27:51.694Z,853.32
2023-05-25T00:28:51.702Z,853.25
2023-05-25T00:29:51.666Z,853.31
2023-05-25T00:30:51.701Z,853.31
2023-05-25T00:31:51.658Z,853.26
2023-05-25T00:32:51.686Z,853.29
2023-05-25T00:33:51.637Z,853.27
2023-05-25T00:34:51.645Z,853.30
2023-05-25T00:35:51.602Z,853.29
2023-05-25T00:36:51.593Z,853.30
2023-05-25T00:37:51.594Z,853.29
2023-05-25T00:38:51.580Z,853.29
2023-05-25T00:39:51.564Z,853.29
2023-05-25T00:40:51.597Z,853.28
2023-05-25T00:41:51.544Z,853.31
2023-05-25T00:42:51.525Z,853.26
2023-05-25T00:43:51.564Z,853.24
2023-05-25T00:44:51.504Z,853.22
2023-05-25T00:45:51.493Z,853.20
2023-05-25T00:46:51.568Z,853.17
2023-05-25T00:47:51.585Z,853.16
2023-05-25T00:48:51.459Z,853.16
2023-05-25T00:49:51.466Z,853.16
2023-05-25T00:50:51.455Z,853.16
2023-05-25T00:51:51.436Z,853.19
2023-05-25T00:52:51.442Z,853.19
2023-05-25T00:53:51.430Z,853.21
2023-05-25T00:54:51.408Z,853.18
2023-05-25T00:55:51.398Z,853.18
2023-05-25T00:56:51.378Z,853.15
2023-05-25T00:57:51.363Z,853.15
2023-05-25T00:58:51.433Z,853.12
2023-05-25T00:59:51.369Z,853.15
2023-05-25T01:00:51.335Z,853.15
2023-05-25T01:01:51.348Z,853.13
2023-05-25T01:02:51.396Z,853.11
2023-05-25T01:03:51.345Z,853.11
2023-05-25T01:04:51.313Z,853.12
2023-05-25T01:05:51.296Z,853.09
2023-05-25T01:06:51.264Z,853.12
2023-05-25T01:07:51.266Z,853.11
2023-05-25T01:08:51.249Z,853.09
2023-05-25T01:09:51.240Z,853.14
2023-05-25T01:10:51.257Z,853.13
2023-05-25T01:11:51.210Z,853.12
2023-05-25T01:12:51.210Z,853.10
2023-05-25T01:13:51.183Z,853.09
2023-05-25T01:14:51.186Z,853.11
2023-05-25T01:15:51.176Z,853.06
2023-05-25T01:16:51.274Z,853.05
2023-05-25T01:17:51.170Z,853.04
2023-05-25T01:18:51.141Z,853.03
2023-05-25T01:20:08.231Z,853.03
2023-05-25T01:20:52.142Z,853.00
2023-05-25T01:21:51.103Z,853.01
2023-05-25T01:22:51.134Z,852.96
2023-05-25T01:23:51.082Z,852.90
2023-05-25T01:24:51.101Z,852.91
2023-05-25T01:25:51.066Z,852.88
2023-05-25T01:26:51.048Z,852.88
2023-05-25T01:27:51.070Z,852.89
2023-05-25T01:28:51.037Z,852.87
2023-05-25T01:29:51.015Z,852.89
2023-05-25T01:30:51.004Z,852.89
2023-05-25T01:31:51.019Z,852.88
2023-05-25T01:32:51.025Z,852.83
2023-05-25T01:33:50.967Z,852.84
2023-05-25T01:34:51.005Z,852.85
2023-05-25T01:35:50.996Z,852.80
2023-05-25T01:36:50.941Z,852.80
2023-05-25T01:37:50.923Z,852.82
2023-05-25T01:38:50.953Z,852.82
2023-05-25T01:39:50.897Z,852.81
2023-05-25T01:40:50.902Z,852.83
2023-05-25T01:41:50.881Z,852.88
2023-05-25T01:42:50.881Z,852.87
2023-05-25T01:43:50.854Z,852.87
2023-05-25T01:44:50.868Z,852.84
2023-05-25T01:45:50.879Z,852.89
2023-05-25T01:46:50.850Z,852.82
2023-05-25T01:47:50.861Z,852.79
2023-05-25T01:48:50.806Z,852.83
2023-05-25T01:49:50.797Z,852.83
2023-05-25T01:50:50.777Z,852.83
2023-05-25T01:51:50.957Z,852.84
2023-05-25T01:52:50.787Z,852.86
2023-05-25T01:53:50.744Z,852.89
2023-05-25T01:54:50.759Z,852.87
2023-05-25T01:55:50.737Z,852.92
2023-05-25T01:56:50.712Z,852.98
2023-05-25T01:57:50.705Z,852.95
2023-05-25T01:58:50.766Z,852.96
2023-05-25T01:59:50.681Z,852.90
2023-05-25T02:00:50.672Z,852.92
2023-05-25T02:01:53.124Z,852.91
2023-05-25T02:02:50.671Z,852.94
2023-05-25T02:03:50.633Z,852.99
2023-05-25T02:04:50.678Z,852.98
2023-05-25T02:05:50.644Z,852.99
2023-05-25T02:06:50.629Z,852.99
2023-05-25T02:07:50.617Z,853.03
2023-05-25T02:08:50.587Z,852.97
2023-05-25T02:09:50.574Z,852.99
2023-05-25T02:10:50.595Z,853.03
2023-05-25T02:11:50.558Z,853.00
2023-05-25T02:12:50.542Z,853.02
2023-05-25T02:13:50.541Z,852.98
2023-05-25T02:14:50.525Z,853.01
2023-05-25T02:15:50.596Z,852.99
2023-05-25T02:16:50.517Z,852.97
2023-05-25T02:17:50.509Z,852.93
2023-05-25T02:18:50.486Z,852.91
2023-05-25T02:19:50.515Z,852.86
2023-05-25T02:20:50.494Z,852.91
2023-05-25T02:21:50.447Z,853.01
2023-05-25T02:22:50.460Z,853.04
2023-05-25T02:23:50.458Z,853.06
2023-05-25T02:24:50.417Z,853.00
2023-05-25T02:25:50.402Z,853.00
2023-05-25T02:26:50.405Z,853.00
2023-05-25T02:27:50.376Z,852.91
2023-05-25T02:28:50.400Z,852.95
2023-05-25T02:29:50.414Z,852.95
2023-05-25T02:30:50.385Z,852.94
2023-05-25T02:31:50.466Z,852.96
2023-05-25T02:32:50.398Z,852.97
2023-05-25T02:33:50.323Z,852.98
2023-05-25T02:34:50.332Z,853.03
2023-05-25T02:35:50.308Z,853.00
2023-05-25T02:36:50.286Z,853.05
2023-05-25T02:37:51.230Z,853.04
2023-05-25T02:38:50.273Z,853.03
2023-05-25T02:39:50.276Z,853.01
2023-05-25T02:40:50.258Z,852.98
2023-05-25T02:41:50.233Z,852.99
2023-05-25T02:42:50.224Z,852.99
2023-05-25T02:43:50.226Z,853.06
2023-05-25T02:44:50.202Z,853.07
2023-05-25T02:45:50.192Z,853.04
2023-05-25T02:46:50.242Z,853.11
2023-05-25T02:47:50.176Z,853.08
2023-05-25T02:48:50.159Z,853.04
2023-05-25T02:49:50.158Z,853.05
2023-05-25T02:50:50.136Z,853.06
2023-05-25T02:51:50.129Z,853.10
2023-05-25T02:52:50.131Z,853.09
2023-05-25T02:53:50.095Z,853.18
2023-05-25T02:54:50.118Z,853.18
2023-05-25T02:55:50.103Z,853.20
2023-05-25T02:56:50.073Z,853.21
2023-05-25T02:57:50.053Z,853.18
2023-05-25T02:58:50.064Z,853.20
2023-05-25T02:59:50.035Z,853.25
2023-05-25T03:00:50.064Z,853.26
2023-05-25T03:01:50.019Z,853.30
2023-05-25T03:02:50.087Z,853.26
2023-05-25T03:03:50.021Z,853.25
2023-05-25T03:04:50.003Z,853.29
2023-05-25T03:05:49.984Z,853.34
2023-05-25T03:06:49.976Z,853.34
2023-05-25T03:07:49.962Z,853.32
2023-05-25T03:08:49.956Z,853.35
2023-05-25T03:09:49.949Z,853.36
2023-05-25T03:10:49.954Z,853.41
2023-05-25T03:11:49.939Z,853.40
2023-05-25T03:12:49.893Z,853.41
2023-05-25T03:13:49.889Z,853.39
2023-05-25T03:14:49.881Z,853.43
2023-05-25T03:15:49.870Z,853.44
2023-05-25T03:16:52.145Z,853.43
2023-05-25T03:17:49.890Z,853.48
2023-05-25T03:18:49.854Z,853.47
2023-05-25T03:19:49.847Z,853.47
2023-05-25T03:20:49.805Z,853.43
2023-05-25T03:21:49.795Z,853.42
2023-05-25T03:22:49.813Z,853.44
2023-05-25T03:23:49.798Z,853.50
2023-05-25T03:24:49.770Z,853.52
2023-05-25T03:25:49.762Z,853.53
2023-05-25T03:26:49.754Z,853.52
2023-05-25T03:27:49.752Z,853.56
2023-05-25T03:28:49.764Z,853.55
2023-05-25T03:29:49.710Z,853.54
2023-05-25T03:30:49.700Z,853.57
2023-05-25T03:31:49.732Z,853.59
2023-05-25T03:32:49.708Z,853.53
2023-05-25T03:33:49.668Z,853.58
2023-05-25T03:34:49.694Z,853.50
2023-05-25T03:35:49.649Z,853.48
2023-05-25T03:36:49.663Z,853.48
2023-05-25T03:37:49.623Z,853.51
2023-05-25T03:38:49.621Z,853.57
2023-05-25T03:39:49.617Z,853.55
2023-05-25T03:40:49.604Z,853.58
2023-05-25T03:41:49.596Z,853.57
2023-05-25T03:42:49.591Z,853.54
2023-05-25T03:43:49.585Z,853.52
2023-05-25T03:44:50.539Z,853.56
2023-05-25T03:45:49.588Z,853.56
2023-05-25T03:46:49.561Z,853.56
2023-05-25T03:47:49.578Z,853.61
2023-05-25T03:48:49.520Z,853.63
2023-05-25T03:49:49.494Z,853.60
2023-05-25T03:50:49.482Z,853.66
2023-05-25T03:51:49.495Z,853.71
2023-05-25T03:52:49.461Z,853.74
2023-05-25T03:53:49.460Z,853.73
2023-05-25T03:54:49.440Z,853.73
2023-05-25T03:55:49.440Z,853.74
2023-05-25T03:56:49.419Z,853.77
2023-05-25T03:57:49.418Z,853.76
2023-05-25T03:58:49.397Z,853.75
2023-05-25T03:59:49.411Z,853.81
2023-05-25T04:00:49.372Z,853.77
2023-05-25T04:01:49.372Z,853.81
2023-05-25T04:02:49.455Z,853.83
2023-05-25T04:03:49.490Z,853.78
2023-05-25T04:04:49.409Z,853.75
2023-05-25T04:05:49.315Z,853.77
2023-05-25T04:06:49.309Z,853.80
2023-05-25T04:07:49.296Z,853.79
2023-05-25T04:08:49.300Z,853.80
2023-05-25T04:09:49.297Z,853.83
2023-05-25T04:10:49.262Z,853.83
2023-05-25T04:11:49.260Z,853.81
2023-05-25T04:12:49.244Z,853.87
2023-05-25T04:13:49.243Z,853.83
2023-05-25T04:14:49.230Z,853.79
2023-05-25T04:15:49.229Z,853.83
2023-05-25T04:16:49.311Z,853.83
2023-05-25T04:17:49.193Z,853.84
2023-05-25T04:18:49.183Z,853.80
2023-05-25T04:19:49.173Z,853.78
2023-05-25T04:20:49.164Z,853.80
2023-05-25T04:21:49.163Z,853.73
2023-05-25T04:22:49.157Z,853.74
2023-05-25T04:23:49.119Z,853.76
2023-05-25T04:24:49.111Z,853.76
2023-05-25T04:25:49.110Z,853.72
2023-05-25T04:26:49.088Z,853.77
2023-05-25T04:27:49.108Z,853.80
2023-05-25T04:28:49.082Z,853.83
2023-05-25T04:29:49.057Z,853.86
2023-05-25T04:30:49.050Z,853.82
2023-05-25T04:31:49.062Z,853.85
2023-05-25T04:32:49.073Z,853.86
2023-05-25T04:33:49.026Z,853.80
2023-05-25T04:34:49.010Z,853.87
2023-05-25T04:35:48.995Z,853.91
2023-05-25T04:36:48.988Z,853.90
2023-05-25T04:37:48.978Z,853.98
2023-05-25T04:38:48.980Z,853.96
2023-05-25T04:39:48.987Z,853.96
2023-05-25T04:40:48.940Z,853.96
2023-05-25T04:41:48.932Z,853.96
2023-05-25T04:42:48.970Z,853.99
2023-05-25T04:44:04.770Z,853.97
2023-05-25T04:44:49.892Z,853.93
2023-05-25T04:45:48.931Z,854.00
2023-05-25T04:46:48.875Z,853.99
2023-05-25T04:47:48.896Z,854.01
2023-05-25T04:48:48.849Z,854.02
2023-05-25T04:49:48.847Z,854.01
2023-05-25T04:50:48.846Z,853.99
2023-05-25T04:51:48.821Z,854.07
2023-05-25T04:52:48.827Z,854.02
2023-05-25T04:53:48.795Z,854.04
2023-05-25T04:54:48.781Z,854.03
2023-05-25T04:55:48.779Z,854.05
2023-05-25T04:56:48.788Z,854.05
2023-05-25T04:57:48.750Z,854.04
2023-05-25T04:58:48.809Z,854.07
2023-05-25T04:59:48.739Z,854.11
2023-05-25T05:00:50.249Z,854.16
2023-05-25T05:01:48.775Z,854.18
2023-05-25T05:02:48.795Z,854.18
2023-05-25T05:03:48.792Z,854.20
2023-05-25T05:04:48.681Z,854.25
2023-05-25T05:05:48.665Z,854.24
2023-05-25T05:06:48.680Z,854.23
2023-05-25T05:07:48.646Z,854.23
2023-05-25T05:08:48.649Z,854.26
2023-05-25T05:09:48.648Z,854.23
2023-05-25T05:10:48.608Z,854.30
2023-05-25T05:11:48.598Z,854.27
2023-05-25T05:12:48.605Z,854.34
2023-05-25T05:13:48.590Z,854.34
2023-05-25T05:14:48.577Z,854.31
2023-05-25T05:15:48.598Z,854.34
2023-05-25T05:16:48.588Z,854.37
2023-05-25T05:17:48.599Z,854.35
2023-05-25T05:18:48.527Z,854.38
2023-05-25T05:19:48.547Z,854.38
2023-05-25T05:20:48.506Z,854.37
2023-05-25T05:21:48.519Z,854.34
2023-05-25T05:22:48.479Z,854.30
2023-05-25T05:23:48.480Z,854.26
2023-05-25T05:24:48.457Z,854.27
2023-05-25T05:25:48.457Z,854.30
2023-05-25T05:26:58.327Z,854.28
2023-05-25T05:27:49.480Z,854.31
2023-05-25T05:28:48.410Z,854.39
2023-05-25T05:29:48.404Z,854.36
2023-05-25T05:30:48.393Z,854.39
2023-05-25T05:31:48.611Z,854.37
2023-05-25T05:32:48.413Z,854.41
2023-05-25T05:33:48.399Z,854.41
2023-05-25T05:34:48.346Z,854.37
2023-05-25T05:35:48.375Z,854.43
2023-05-25T05:36:57.528Z,854.44
2023-05-25T05:37:49.331Z,854.40
2023-05-25T05:38:48.308Z,854.43
2023-05-25T05:39:48.311Z,854.40
2023-05-25T05:40:48.322Z,854.47
2023-05-25T05:41:48.284Z,854.52
2023-05-25T05:42:48.258Z,854.48
2023-05-25T05:43:48.272Z,854.52
2023-05-25T05:44:48.240Z,854.51
2023-05-25T05:45:48.280Z,854.52
2023-05-25T05:46:48.287Z,854.54
2023-05-25T05:47:48.240Z,854.57
2023-05-25T05:48:48.194Z,854.58
2023-05-25T05:49:48.216Z,854.62
2023-05-25T05:50:48.173Z,854.63
2023-05-25T05:51:48.207Z,854.62
2023-05-25T05:52:48.150Z,854.61
2023-05-25T05:53:48.147Z,854.64
2023-05-25T05:54:48.143Z,854.62
2023-05-25T05:55:49.590Z,854.62
2023-05-25T05:56:48.119Z,854.65
2023-05-25T05:57:48.134Z,854.69
2023-05-25T05:58:48.087Z,854.74
2023-05-25T05:59:48.083Z,854.74
2023-05-25T06:00:48.070Z,854.77
2023-05-25T06:01:48.077Z,854.75
2023-05-25T06:02:48.198Z,854.73
2023-05-25T06:03:48.070Z,854.73
2023-05-25T06:04:48.074Z,854.70
2023-05-25T06:05:48.285Z,854.70
2023-05-25T06:06:48.004Z,854.74
2023-05-25T06:07:48.011Z,854.74
2023-05-25T06:08:48.002Z,854.78
2023-05-25T06:09:47.983Z,854.77
2023-05-25T06:10:47.974Z,854.79
2023-05-25T06:11:47.942Z,854.80
2023-05-25T06:12:47.929Z,854.83
2023-05-25T06:13:47.926Z,854.84
2023-05-25T06:14:47.919Z,854.81
2023-05-25T06:15:47.921Z,854.83
2023-05-25T06:16:47.956Z,854.88
2023-05-25T06:17:47.898Z,854.90
2023-05-25T06:18:47.866Z,854.85
2023-05-25T06:19:47.864Z,854.87
2023-05-25T06:20:48.000Z,854.89
2023-05-25T06:21:47.848Z,854.89
2023-05-25T06:22:47.821Z,854.94
2023-05-25T06:23:47.953Z,854.92
2023-05-25T06:24:47.807Z,854.93
2023-05-25T06:25:47.792Z,854.92
2023-05-25T06:26:47.790Z,854.94
2023-05-25T06:27:47.789Z,854.91
2023-05-25T06:28:47.772Z,854.95
2023-05-25T06:29:47.746Z,854.92
2023-05-25T06:30:47.754Z,854.97
2023-05-25T06:31:47.812Z,854.95
2023-05-25T06:32:47.743Z,854.97
2023-05-25T06:33:47.722Z,854.96
2023-05-25T06:34:47.700Z,854.93
2023-05-25T06:35:47.926Z,854.96
2023-05-25T06:36:47.680Z,854.94
2023-05-25T06:37:47.663Z,854.98
2023-05-25T06:38:47.667Z,854.99
2023-05-25T06:39:47.675Z,854.99
2023-05-25T06:40:47.626Z,855.01
2023-05-25T06:41:47.626Z,855.04
2023-05-25T06:42:47.602Z,855.04
2023-05-25T06:43:47.599Z,855.06
2023-05-25T06:44:47.582Z,855.09
2023-05-25T06:45:47.879Z,855.05
2023-05-25T06:46:47.650Z,855.12
2023-05-25T06:47:47.614Z,855.12
2023-05-25T06:48:47.577Z,855.12
2023-05-25T06:49:47.537Z,855.15
2023-05-25T06:50:47.535Z,855.19
2023-05-25T06:51:47.524Z,855.18
2023-05-25T06:52:47.493Z,855.22
2023-05-25T06:53:47.486Z,855.26
2023-05-25T06:54:47.488Z,855.25
2023-05-25T06:55:47.556Z,855.23
2023-05-25T06:56:47.458Z,855.23
2023-05-25T06:57:47.467Z,855.25
2023-05-25T06:58:47.430Z,855.23
2023-05-25T06:59:47.432Z,855.23
2023-05-25T07:00:47.408Z,855.30
2023-05-25T07:01:47.605Z,855.30
2023-05-25T07:02:47.410Z,855.29
2023-05-25T07:03:47.397Z,855.25
2023-05-25T07:04:47.427Z,855.27
2023-05-25T07:05:47.357Z,855.33
2023-05-25T07:06:47.345Z,855.34
2023-05-25T07:07:47.356Z,855.38
2023-05-25T07:08:47.324Z,855.33
2023-05-25T07:09:47.343Z,855.35
2023-05-25T07:10:49.315Z,855.34
2023-05-25T07:11:47.331Z,855.29
2023-05-25T07:12:47.282Z,855.36
2023-05-25T07:13:47.274Z,855.33
2023-05-25T07:14:47.262Z,855.29
2023-05-25T07:15:47.533Z,855.35
2023-05-25T07:16:47.242Z,855.35
2023-05-25T07:17:47.315Z,855.37
2023-05-25T07:18:47.217Z,855.34
2023-05-25T07:19:47.210Z,855.32
2023-05-25T07:20:47.306Z,855.41
2023-05-25T07:21:47.215Z,855.38
2023-05-25T07:22:47.189Z,855.40
2023-05-25T07:23:47.165Z,855.45
2023-05-25T07:24:47.156Z,855.40
2023-05-25T07:25:47.242Z,855.42
2023-05-25T07:26:47.145Z,855.45
2023-05-25T07:27:47.148Z,855.45
2023-05-25T07:28:47.116Z,855.44
2023-05-25T07:29:47.132Z,855.45
2023-05-25T07:30:47.088Z,855.43
2023-05-25T07:31:47.275Z,855.49
2023-05-25T07:32:47.079Z,855.46
2023-05-25T07:33:47.082Z,855.49
2023-05-25T07:34:47.065Z,855.54
2023-05-25T07:35:47.176Z,855.59
2023-05-25T07:36:47.025Z,855.62
2023-05-25T07:37:47.025Z,855.62
2023-05-25T07:38:47.013Z,855.62
2023-05-25T07:39:47.024Z,855.66
2023-05-25T07:40:46.980Z,855.64
2023-05-25T07:41:46.976Z,855.64
2023-05-25T07:42:46.961Z,855.65
2023-05-25T07:43:46.992Z,855.69
2023-05-25T07:44:46.966Z,855.68
2023-05-25T07:45:47.011Z,855.64
2023-05-25T07:46:46.963Z,855.66
2023-05-25T07:47:46.915Z,855.62
2023-05-25T07:48:46.889Z,855.67
2023-05-25T07:49:46.898Z,855.60
2023-05-25T07:50:46.879Z,855.60
2023-05-25T07:51:46.885Z,855.58
2023-05-25T07:52:46.910Z,855.59
2023-05-25T07:53:46.868Z,855.57
2023-05-25T07:54:46.892Z,855.59
2023-05-25T07:55:47.086Z,855.58
2023-05-25T07:56:46.808Z,855.57
2023-05-25T07:57:46.826Z,855.63
2023-05-25T07:58:46.787Z,855.59
2023-05-25T07:59:46.794Z,855.64
2023-05-25T08:00:46.781Z,855.55
2023-05-25T08:01:46.801Z,855.60
2023-05-25T08:02:46.820Z,855.58
2023-05-25T08:03:49.532Z,855.64
2023-05-25T08:04:46.763Z,855.62
2023-05-25T08:05:46.872Z,855.66
2023-05-25T08:06:46.726Z,855.67
2023-05-25T08:07:46.740Z,855.62
2023-05-25T08:08:46.680Z,855.72
2023-05-25T08:09:46.708Z,855.72
2023-05-25T08:10:46.656Z,855.66
2023-05-25T08:11:46.646Z,855.72
2023-05-25T08:12:49.694Z,855.61
2023-05-25T08:13:46.624Z,855.63
2023-05-25T08:14:46.608Z,855.62
2023-05-25T08:15:46.775Z,855.53
2023-05-25T08:16:46.643Z,855.64
2023-05-25T08:17:46.616Z,855.66
2023-05-25T08:18:46.568Z,855.70
2023-05-25T08:19:46.579Z,855.67
2023-05-25T08:20:46.650Z,855.69
2023-05-25T08:21:46.564Z,855.68
2023-05-25T08:22:46.527Z,855.71
2023-05-25T08:23:46.516Z,855.73
2023-05-25T08:24:46.499Z,855.73
2023-05-25T08:25:46.748Z,855.72
2023-05-25T08:27:47.492Z,855.71
2023-05-25T08:28:46.518Z,855.71
2023-05-25T08:29:46.462Z,855.77
2023-05-25T08:30:46.530Z,855.79
2023-05-25T08:31:46.463Z,855.75
2023-05-25T08:32:46.535Z,855.78
2023-05-25T08:33:46.466Z,855.76
2023-05-25T08:34:46.407Z,855.76
2023-05-25T08:35:46.646Z,855.86
2023-05-25T08:36:46.387Z,855.84
2023-05-25T08:37:46.411Z,855.85
2023-05-25T08:38:46.370Z,855.89
2023-05-25T08:39:46.384Z,855.87
2023-05-25T08:40:46.326Z,855.86
2023-05-25T08:41:46.324Z,855.88
2023-05-25T08:42:46.314Z,855.81
2023-05-25T08:43:46.310Z,855.86
2023-05-25T08:44:46.280Z,855.83
2023-05-25T08:45:47.404Z,855.87
2023-05-25T08:46:46.266Z,855.82
2023-05-25T08:47:46.369Z,855.89
2023-05-25T08:48:46.330Z,855.85
2023-05-25T08:49:46.479Z,855.88
2023-05-25T08:50:46.231Z,855.91
2023-05-25T08:51:46.221Z,855.94
2023-05-25T08:52:46.206Z,855.92
2023-05-25T08:53:46.193Z,855.95
2023-05-25T08:54:46.173Z,855.96
2023-05-25T08:55:46.403Z,855.97
2023-05-25T08:56:46.161Z,855.95
2023-05-25T08:57:46.166Z,855.97
2023-05-25T08:58:46.127Z,855.96
2023-05-25T08:59:46.124Z,855.96
2023-05-25T09:00:46.323Z,855.94
2023-05-25T09:01:46.186Z,855.95
2023-05-25T09:02:46.188Z,855.94
2023-05-25T09:03:46.289Z,855.93
2023-05-25T09:04:46.058Z,855.98
2023-05-25T09:05:46.222Z,855.96
2023-05-25T09:06:57.170Z,855.96
2023-05-25T09:07:47.035Z,855.90
2023-05-25T09:08:46.021Z,855.94
2023-05-25T09:09:46.035Z,855.96
2023-05-25T09:10:45.997Z,856.00
2023-05-25T09:11:46.030Z,855.97
2023-05-25T09:12:45.975Z,855.97
2023-05-25T09:13:45.978Z,855.98
2023-05-25T09:14:46.031Z,856.00
2023-05-25T09:15:46.096Z,856.03
2023-05-25T09:16:45.952Z,856.08
2023-05-25T09:17:45.935Z,856.04
2023-05-25T09:18:45.908Z,856.10
2023-05-25T09:19:45.915Z,856.10
2023-05-25T09:20:47.336Z,856.08
2023-05-25T09:21:45.899Z,856.09
2023-05-25T09:22:45.890Z,856.13
2023-05-25T09:23:45.856Z,856.10
2023-05-25T09:24:45.868Z,856.17
2023-05-25T09:25:45.844Z,856.22
2023-05-25T09:26:48.113Z,856.20
2023-05-25T09:27:45.841Z,856.26
2023-05-25T09:28:45.806Z,856.26
2023-05-25T09:29:45.793Z,856.27
2023-05-25T09:30:45.997Z,856.26
2023-05-25T09:31:45.821Z,856.25
2023-05-25T09:32:45.814Z,856.22
2023-05-25T09:33:45.762Z,856.31
2023-05-25T09:34:45.741Z,856.27
2023-05-25T09:35:45.775Z,856.28
2023-05-25T09:36:45.913Z,856.31
2023-05-25T09:37:45.843Z,856.33
2023-05-25T09:38:46.056Z,856.33
2023-05-25T09:39:45.821Z,856.32
2023-05-25T09:40:45.902Z,856.31
2023-05-25T09:41:45.667Z,856.28
2023-05-25T09:42:45.667Z,856.31
2023-05-25T09:43:54.758Z,856.35
2023-05-25T09:44:46.669Z,856.31
2023-05-25T09:45:45.652Z,856.36
2023-05-25T09:46:45.622Z,856.34
2023-05-25T09:47:45.670Z,856.33
2023-05-25T09:48:45.594Z,856.43
2023-05-25T09:49:45.583Z,856.35
2023-05-25T09:50:48.025Z,856.37
2023-05-25T09:51:45.605Z,856.32
2023-05-25T09:52:45.557Z,856.32
2023-05-25T09:53:45.533Z,856.35
2023-05-25T09:54:45.526Z,856.40
2023-05-25T09:55:53.753Z,856.38
2023-05-25T09:56:46.651Z,856.39
2023-05-25T09:57:45.500Z,856.35
2023-05-25T09:58:45.480Z,856.39
2023-05-25T09:59:45.481Z,856.39
2023-05-25T10:00:45.798Z,856.43
2023-05-25T10:01:45.501Z,856.41
2023-05-25T10:02:45.470Z,856.45
2023-05-25T10:03:59.714Z,856.44
2023-05-25T10:04:46.570Z,856.44
2023-05-25T10:05:45.404Z,856.48
2023-05-25T10:06:45.460Z,856.51
2023-05-25T10:07:45.399Z,856.49
2023-05-25T10:08:45.382Z,856.50
2023-05-25T10:09:45.368Z,856.46
2023-05-25T10:10:45.645Z,856.45
2023-05-25T10:11:45.331Z,856.45
2023-05-25T10:12:45.336Z,856.51
2023-05-25T10:13:45.340Z,856.46
2023-05-25T10:14:45.333Z,856.49
2023-05-25T10:15:45.320Z,856.40
2023-05-25T10:16:45.322Z,856.44
2023-05-25T10:17:45.361Z,856.43
2023-05-25T10:18:45.273Z,856.51
2023-05-25T10:19:45.285Z,856.44
2023-05-25T10:20:45.290Z,856.43
2023-05-25T10:21:45.241Z,856.46
2023-05-25T10:22:45.225Z,856.44
2023-05-25T10:23:45.239Z,856.45
2023-05-25T10:24:45.203Z,856.48
2023-05-25T10:25:45.201Z,856.44
2023-05-25T10:26:45.259Z,856.42
2023-05-25T10:27:45.171Z,856.42
2023-05-25T10:28:45.160Z,856.46
2023-05-25T10:29:45.136Z,856.38
2023-05-25T10:30:45.144Z,856.41
2023-05-25T10:31:45.163Z,856.43
2023-05-25T10:32:45.115Z,856.43
2023-05-25T10:33:49.125Z,856.44
2023-05-25T10:34:46.088Z,856.44
2023-05-25T10:36:01.621Z,856.44
2023-05-25T10:36:46.086Z,856.41
2023-05-25T10:37:45.053Z,856.42
2023-05-25T10:38:45.040Z,856.43
2023-05-25T10:39:45.051Z,856.45
2023-05-25T10:40:45.022Z,856.47
2023-05-25T10:41:45.019Z,856.52
2023-05-25T10:42:44.998Z,856.52
2023-05-25T10:43:44.994Z,856.50
2023-05-25T10:44:44.974Z,856.51
2023-05-25T10:45:45.276Z,856.52
2023-05-25T10:46:45.099Z,856.50
2023-05-25T10:47:44.982Z,856.51
2023-05-25T10:48:44.944Z,856.48
2023-05-25T10:49:44.989Z,856.46
2023-05-25T10:50:44.910Z,856.52
2023-05-25T10:51:44.923Z,856.48
2023-05-25T10:52:44.893Z,856.45
2023-05-25T10:53:44.875Z,856.46
2023-05-25T10:54:44.870Z,856.49
2023-05-25T10:55:45.112Z,856.51
2023-05-25T10:56:46.233Z,856.49
2023-05-25T10:57:44.851Z,856.49
2023-05-25T10:58:44.826Z,856.49
2023-05-25T10:59:44.812Z,856.51
2023-05-25T11:00:44.908Z,856.47
2023-05-25T11:01:44.859Z,856.48
2023-05-25T11:02:44.851Z,856.52
2023-05-25T11:03:45.261Z,856.52
2023-05-25T11:04:44.889Z,856.50
2023-05-25T11:05:45.099Z,856.51
2023-05-25T11:06:44.766Z,856.53
2023-05-25T11:07:44.730Z,856.58
2023-05-25T11:08:44.728Z,856.56
2023-05-25T11:09:44.734Z,856.57
2023-05-25T11:10:44.702Z,856.60
2023-05-25T11:11:44.700Z,856.62
2023-05-25T11:12:44.676Z,856.57
2023-05-25T11:13:44.678Z,856.53
2023-05-25T11:14:44.662Z,856.52
2023-05-25T11:15:44.919Z,856.54
2023-05-25T11:16:44.682Z,856.56
2023-05-25T11:17:44.670Z,856.49
2023-05-25T11:18:44.618Z,856.54
2023-05-25T11:19:44.610Z,856.54
2023-05-25T11:20:44.706Z,856.50
2023-05-25T11:21:44.611Z,856.54
2023-05-25T11:22:44.564Z,856.55
2023-05-25T11:23:44.560Z,856.56
2023-05-25T11:24:44.569Z,856.55
2023-05-25T11:25:44.780Z,856.55
2023-05-25T11:26:44.531Z,856.55
2023-05-25T11:27:44.545Z,856.50
2023-05-25T11:28:44.498Z,856.50
2023-05-25T11:29:44.492Z,856.50
2023-05-25T11:30:44.491Z,856.50
2023-05-25T11:31:44.495Z,856.55
2023-05-25T11:32:44.464Z,856.49
2023-05-25T11:33:44.464Z,856.45
2023-05-25T11:34:44.451Z,856.47
2023-05-25T11:35:44.620Z,856.45
2023-05-25T11:36:44.413Z,856.43
2023-05-25T11:37:44.404Z,856.41
2023-05-25T11:38:52.893Z,856.46
2023-05-25T11:39:45.391Z,856.42
2023-05-25T11:40:44.374Z,856.52
2023-05-25T11:41:44.363Z,856.50
2023-05-25T11:42:44.362Z,856.52
2023-05-25T11:43:44.364Z,856.50
2023-05-25T11:44:44.343Z,856.49
2023-05-25T11:45:44.350Z,856.50
2023-05-25T11:46:44.369Z,856.53
2023-05-25T11:47:44.320Z,856.48
2023-05-25T11:48:44.286Z,856.50
2023-05-25T11:49:44.301Z,856.51
2023-05-25T11:50:44.429Z,856.49
2023-05-25T11:51:44.266Z,856.53
2023-05-25T11:52:44.253Z,856.56
2023-05-25T11:53:44.231Z,856.51
2023-05-25T11:54:44.226Z,856.54
2023-05-25T11:55:44.221Z,856.55
2023-05-25T11:56:44.206Z,856.50
2023-05-25T11:57:44.207Z,856.47
2023-05-25T11:58:44.173Z,856.50
2023-05-25T11:59:44.201Z,856.41
2023-05-25T12:00:44.368Z,856.45
2023-05-25T12:01:44.142Z,856.47
2023-05-25T12:02:44.206Z,856.48
2023-05-25T12:03:44.247Z,856.50
2023-05-25T12:04:44.194Z,856.54
2023-05-25T12:05:44.347Z,856.48
2023-05-25T12:06:44.094Z,856.50
2023-05-25T12:07:44.077Z,856.51
2023-05-25T12:08:44.066Z,856.55
2023-05-25T12:09:44.069Z,856.54
2023-05-25T12:10:44.245Z,856.56
2023-05-25T12:11:44.035Z,856.51
2023-05-25T12:12:44.032Z,856.55
2023-05-25T12:13:44.011Z,856.48
2023-05-25T12:14:44.000Z,856.46
2023-05-25T12:15:44.240Z,856.48
2023-05-25T12:16:44.012Z,856.47
2023-05-25T12:17:44.019Z,856.44
2023-05-25T12:18:43.964Z,856.43
2023-05-25T12:19:43.951Z,856.49
2023-05-25T12:20:44.191Z,856.49
2023-05-25T12:21:43.935Z,856.48
2023-05-25T12:22:43.932Z,856.46
2023-05-25T12:23:43.909Z,856.47
2023-05-25T12:24:43.894Z,856.49
2023-05-25T12:25:50.846Z,856.52
2023-05-25T12:26:44.865Z,856.52
2023-05-25T12:27:43.907Z,856.54
2023-05-25T12:28:43.865Z,856.53
2023-05-25T12:29:43.849Z,856.54